sensor_id;sensor_type;location;lat;lon;timestamp;pressure;altitude;pressure_sealevel;temperature;humidity
12594;BME280;6362;50.208;9.182;2023-06-10T00:01:39;99595.06;;;18.38;57.31
12594;BME280;6362;50.208;9.182;2023-06-10T00:04:04;99596.84;;;18.38;57.32
12594;BME280;6362;50.208;9.182;2023-06-10T00:06:30;99592.63;;;18.34;57.53
12594;BME280;6362;50.208;9.182;2023-06-10T00:09:04;99598.81;;;18.33;57.19
12594;BME280;6362;50.208;9.182;2023-06-10T00:11:36;99596.22;;;18.31;57.50
12594;BME280;6362;50.208;9.182;2023-06-10T00:14:02;99592.94;;;18.26;57.93
12594;BME280;6362;50.208;9.182;2023-06-10T00:16:27;99590.78;;;18.15;58.38
12594;BME280;6362;50.208;9.182;2023-06-10T00:18:53;99592.63;;;18.13;58.46
12594;BME280;6362;50.208;9.182;2023-06-10T00:21:21;99590.09;;;18.12;58.21
12594;BME280;6362;50.208;9.182;2023-06-10T00:23:47;99585.22;;;18.03;58.49
12594;BME280;6362;50.208;9.182;2023-06-10T00:26:12;99590.09;;;17.91;59.09
12594;BME280;6362;50.208;9.182;2023-06-10T00:28:38;99588.91;;;17.78;59.44
12594;BME280;6362;50.208;9.182;2023-06-10T00:31:03;99595.22;;;17.74;59.28
12594;BME280;6362;50.208;9.182;2023-06-10T00:33:29;99602.31;;;17.72;59.21
12594;BME280;6362;50.208;9.182;2023-06-10T00:35:55;99602.47;;;17.67;59.19
12594;BME280;6362;50.208;9.182;2023-06-10T00:38:20;99597.06;;;17.71;59.18
12594;BME280;6362;50.208;9.182;2023-06-10T00:40:46;99594.50;;;17.69;58.92
12594;BME280;6362;50.208;9.182;2023-06-10T00:43:11;99594.59;;;17.67;59.05
12594;BME280;6362;50.208;9.182;2023-06-10T00:45:37;99597.16;;;17.69;59.17
12594;BME280;6362;50.208;9.182;2023-06-10T00:48:03;99593.59;;;17.70;59.19
12594;BME280;6362;50.208;9.182;2023-06-10T00:50:29;99588.53;;;17.65;59.19
12594;BME280;6362;50.208;9.182;2023-06-10T00:52:56;99588.47;;;17.67;59.40
12594;BME280;6362;50.208;9.182;2023-06-10T00:55:22;99587.66;;;17.65;59.38
12594;BME280;6362;50.208;9.182;2023-06-10T00:57:48;99594.84;;;17.61;59.29
12594;BME280;6362;50.208;9.182;2023-06-10T01:00:15;99595.56;;;17.65;58.89
12594;BME280;6362;50.208;9.182;2023-06-10T01:02:41;99592.66;;;17.73;58.52
12594;BME280;6362;50.208;9.182;2023-06-10T01:05:08;99585.69;;;17.70;58.69
12594;BME280;6362;50.208;9.182;2023-06-10T01:07:40;99592.75;;;17.69;58.64
12594;BME280;6362;50.208;9.182;2023-06-10T01:10:10;99588.31;;;17.70;58.41
12594;BME280;6362;50.208;9.182;2023-06-10T01:15:16;99583.34;;;17.64;59.05
12594;BME280;6362;50.208;9.182;2023-06-10T01:18:04;99591.56;;;17.56;59.19
12594;BME280;6362;50.208;9.182;2023-06-10T01:20:32;99592.34;;;17.58;59.31
12594;BME280;6362;50.208;9.182;2023-06-10T01:22:59;99588.09;;;17.54;59.26
12594;BME280;6362;50.208;9.182;2023-06-10T01:25:26;99592.59;;;17.52;59.19
12594;BME280;6362;50.208;9.182;2023-06-10T01:28:12;99583.97;;;17.49;59.59
12594;BME280;6362;50.208;9.182;2023-06-10T01:33:35;99587.78;;;17.41;59.80
12594;BME280;6362;50.208;9.182;2023-06-10T01:36:02;99595.81;;;17.38;60.10
12594;BME280;6362;50.208;9.182;2023-06-10T01:38:30;99591.56;;;17.34;60.22
12594;BME280;6362;50.208;9.182;2023-06-10T01:40:57;99597.94;;;17.29;60.10
12594;BME280;6362;50.208;9.182;2023-06-10T01:43:23;99592.00;;;17.24;60.46
12594;BME280;6362;50.208;9.182;2023-06-10T01:45:49;99588.59;;;17.22;60.37
12594;BME280;6362;50.208;9.182;2023-06-10T01:48:14;99593.13;;;17.18;60.33
12594;BME280;6362;50.208;9.182;2023-06-10T01:50:40;99589.88;;;17.11;60.69
12594;BME280;6362;50.208;9.182;2023-06-10T01:53:05;99587.25;;;17.11;60.69
12594;BME280;6362;50.208;9.182;2023-06-10T01:55:31;99588.28;;;17.07;60.66
12594;BME280;6362;50.208;9.182;2023-06-10T01:57:56;99589.91;;;17.10;60.74
12594;BME280;6362;50.208;9.182;2023-06-10T02:00:22;99590.97;;;17.06;60.43
12594;BME280;6362;50.208;9.182;2023-06-10T02:02:47;99585.81;;;17.03;60.78
12594;BME280;6362;50.208;9.182;2023-06-10T02:05:13;99593.00;;;16.99;60.95
12594;BME280;6362;50.208;9.182;2023-06-10T02:07:38;99586.66;;;17.05;60.58
12594;BME280;6362;50.208;9.182;2023-06-10T02:10:04;99593.03;;;16.98;60.88
12594;BME280;6362;50.208;9.182;2023-06-10T02:12:30;99589.31;;;17.03;60.69
12594;BME280;6362;50.208;9.182;2023-06-10T02:14:56;99595.72;;;16.96;61.14
12594;BME280;6362;50.208;9.182;2023-06-10T02:17:21;99594.94;;;16.94;60.80
12594;BME280;6362;50.208;9.182;2023-06-10T02:19:48;99591.56;;;16.91;60.78
12594;BME280;6362;50.208;9.182;2023-06-10T02:22:20;99586.22;;;16.94;60.24
12594;BME280;6362;50.208;9.182;2023-06-10T02:24:45;99586.25;;;16.92;60.62
12594;BME280;6362;50.208;9.182;2023-06-10T02:27:11;99593.09;;;16.96;60.10
12594;BME280;6362;50.208;9.182;2023-06-10T02:29:36;99580.81;;;16.97;60.25
12594;BME280;6362;50.208;9.182;2023-06-10T02:32:02;99595.72;;;16.96;59.95
12594;BME280;6362;50.208;9.182;2023-06-10T02:34:28;99588.09;;;16.90;60.24
12594;BME280;6362;50.208;9.182;2023-06-10T02:36:54;99590.47;;;16.96;59.82
12594;BME280;6362;50.208;9.182;2023-06-10T02:39:19;99598.59;;;16.90;60.00
12594;BME280;6362;50.208;9.182;2023-06-10T02:41:45;99593.34;;;16.90;59.88
12594;BME280;6362;50.208;9.182;2023-06-10T02:44:11;99602.81;;;16.94;59.60
12594;BME280;6362;50.208;9.182;2023-06-10T02:46:36;99600.44;;;16.88;59.64
12594;BME280;6362;50.208;9.182;2023-06-10T02:49:02;99592.50;;;16.89;59.87
12594;BME280;6362;50.208;9.182;2023-06-10T02:51:27;99593.44;;;16.87;59.74
12594;BME280;6362;50.208;9.182;2023-06-10T02:53:52;99593.66;;;16.82;60.04
12594;BME280;6362;50.208;9.182;2023-06-10T02:56:18;99602.63;;;16.77;60.09
12594;BME280;6362;50.208;9.182;2023-06-10T02:58:44;99599.31;;;16.72;59.92
12594;BME280;6362;50.208;9.182;2023-06-10T03:01:09;99608.19;;;16.68;60.36
12594;BME280;6362;50.208;9.182;2023-06-10T03:03:35;99604.72;;;16.66;60.63
12594;BME280;6362;50.208;9.182;2023-06-10T03:06:02;99609.44;;;16.57;60.76
12594;BME280;6362;50.208;9.182;2023-06-10T03:08:28;99613.94;;;16.54;61.11
12594;BME280;6362;50.208;9.182;2023-06-10T03:10:54;99609.53;;;16.54;60.50
12594;BME280;6362;50.208;9.182;2023-06-10T03:13:19;99607.03;;;16.51;60.80
12594;BME280;6362;50.208;9.182;2023-06-10T03:15:46;99607.34;;;16.44;61.33
12594;BME280;6362;50.208;9.182;2023-06-10T03:18:11;99606.75;;;16.35;61.45
12594;BME280;6362;50.208;9.182;2023-06-10T03:20:37;99608.66;;;16.30;61.70
12594;BME280;6362;50.208;9.182;2023-06-10T03:23:04;99605.19;;;16.30;61.45
12594;BME280;6362;50.208;9.182;2023-06-10T03:25:33;99609.53;;;16.31;61.37
12594;BME280;6362;50.208;9.182;2023-06-10T03:27:58;99610.50;;;16.28;61.26
12594;BME280;6362;50.208;9.182;2023-06-10T03:30:24;99609.75;;;16.25;61.49
12594;BME280;6362;50.208;9.182;2023-06-10T03:32:49;99614.06;;;16.26;61.66
12594;BME280;6362;50.208;9.182;2023-06-10T03:35:15;99612.50;;;16.22;61.76
12594;BME280;6362;50.208;9.182;2023-06-10T03:37:40;99621.38;;;16.18;62.06
12594;BME280;6362;50.208;9.182;2023-06-10T03:40:07;99617.28;;;16.10;62.32
12594;BME280;6362;50.208;9.182;2023-06-10T03:42:34;99627.91;;;16.06;62.38
12594;BME280;6362;50.208;9.182;2023-06-10T03:45:00;99620.22;;;16.01;62.80
12594;BME280;6362;50.208;9.182;2023-06-10T03:47:25;99615.88;;;16.00;62.91
12594;BME280;6362;50.208;9.182;2023-06-10T03:49:51;99616.97;;;15.93;63.05
12594;BME280;6362;50.208;9.182;2023-06-10T03:52:18;99622.22;;;15.93;62.96
12594;BME280;6362;50.208;9.182;2023-06-10T03:54:43;99613.34;;;15.97;63.13
12594;BME280;6362;50.208;9.182;2023-06-10T03:57:08;99610.72;;;15.97;63.22
12594;BME280;6362;50.208;9.182;2023-06-10T03:59:34;99620.00;;;16.07;62.28
12594;BME280;6362;50.208;9.182;2023-06-10T04:02:00;99618.44;;;16.02;62.29
12594;BME280;6362;50.208;9.182;2023-06-10T04:04:26;99627.91;;;16.06;62.16
12594;BME280;6362;50.208;9.182;2023-06-10T04:06:52;99619.91;;;16.10;61.95
12594;BME280;6362;50.208;9.182;2023-06-10T04:09:18;99625.81;;;16.16;61.62
12594;BME280;6362;50.208;9.182;2023-06-10T04:11:43;99623.88;;;16.21;61.45
12594;BME280;6362;50.208;9.182;2023-06-10T04:14:08;99620.19;;;16.26;61.34
12594;BME280;6362;50.208;9.182;2023-06-10T04:16:34;99619.28;;;16.27;61.56
12594;BME280;6362;50.208;9.182;2023-06-10T04:19:00;99616.84;;;16.23;61.33
12594;BME280;6362;50.208;9.182;2023-06-10T04:21:26;99622.88;;;16.25;61.28
12594;BME280;6362;50.208;9.182;2023-06-10T04:23:52;99619.31;;;16.26;61.56
12594;BME280;6362;50.208;9.182;2023-06-10T04:26:17;99626.34;;;16.25;61.57
12594;BME280;6362;50.208;9.182;2023-06-10T04:28:46;99640.22;;;16.29;61.05
12594;BME280;6362;50.208;9.182;2023-06-10T04:31:11;99636.47;;;16.36;60.71
12594;BME280;6362;50.208;9.182;2023-06-10T04:33:37;99625.88;;;16.39;60.72
12594;BME280;6362;50.208;9.182;2023-06-10T04:36:02;99639.03;;;16.37;60.56
12594;BME280;6362;50.208;9.182;2023-06-10T04:38:28;99640.78;;;16.37;60.79
12594;BME280;6362;50.208;9.182;2023-06-10T04:40:53;99642.63;;;16.35;61.22
12594;BME280;6362;50.208;9.182;2023-06-10T04:43:19;99649.50;;;16.39;60.99
12594;BME280;6362;50.208;9.182;2023-06-10T04:45:44;99652.13;;;16.39;60.87
12594;BME280;6362;50.208;9.182;2023-06-10T04:48:11;99643.31;;;16.40;60.93
12594;BME280;6362;50.208;9.182;2023-06-10T04:50:37;99649.25;;;16.45;61.04
12594;BME280;6362;50.208;9.182;2023-06-10T04:53:02;99651.59;;;16.53;60.95
12594;BME280;6362;50.208;9.182;2023-06-10T04:55:28;99648.75;;;16.59;60.83
12594;BME280;6362;50.208;9.182;2023-06-10T04:57:53;99649.94;;;16.75;60.26
12594;BME280;6362;50.208;9.182;2023-06-10T05:00:18;99655.78;;;16.83;59.94
12594;BME280;6362;50.208;9.182;2023-06-10T05:02:44;99649.91;;;16.99;59.28
12594;BME280;6362;50.208;9.182;2023-06-10T05:05:10;99651.28;;;17.09;58.94
12594;BME280;6362;50.208;9.182;2023-06-10T05:07:36;99650.75;;;17.23;58.19
12594;BME280;6362;50.208;9.182;2023-06-10T05:10:02;99641.59;;;17.33;58.26
12594;BME280;6362;50.208;9.182;2023-06-10T05:12:28;99641.53;;;17.34;58.21
12594;BME280;6362;50.208;9.182;2023-06-10T05:14:53;99642.06;;;17.42;58.05
12594;BME280;6362;50.208;9.182;2023-06-10T05:17:19;99638.44;;;17.67;57.29
12594;BME280;6362;50.208;9.182;2023-06-10T05:19:44;99643.72;;;17.67;57.00
12594;BME280;6362;50.208;9.182;2023-06-10T05:22:09;99644.75;;;17.85;57.23
12594;BME280;6362;50.208;9.182;2023-06-10T05:24:35;99647.13;;;17.91;57.47
12594;BME280;6362;50.208;9.182;2023-06-10T05:27:00;99658.31;;;18.16;56.43
12594;BME280;6362;50.208;9.182;2023-06-10T05:29:26;99648.44;;;18.22;56.02
12594;BME280;6362;50.208;9.182;2023-06-10T05:31:51;99650.38;;;18.37;55.64
12594;BME280;6362;50.208;9.182;2023-06-10T05:34:17;99656.28;;;18.43;55.78
12594;BME280;6362;50.208;9.182;2023-06-10T05:36:43;99652.44;;;18.51;55.67
12594;BME280;6362;50.208;9.182;2023-06-10T05:39:09;99661.75;;;18.58;55.25
12594;BME280;6362;50.208;9.182;2023-06-10T05:41:35;99657.75;;;18.69;55.75
12594;BME280;6362;50.208;9.182;2023-06-10T05:44:01;99657.34;;;18.79;55.72
12594;BME280;6362;50.208;9.182;2023-06-10T05:46:26;99658.63;;;18.89;55.16
12594;BME280;6362;50.208;9.182;2023-06-10T05:48:52;99660.25;;;18.91;55.21
12594;BME280;6362;50.208;9.182;2023-06-10T05:51:17;99664.06;;;19.05;54.44
12594;BME280;6362;50.208;9.182;2023-06-10T05:53:42;99658.00;;;19.21;53.93
12594;BME280;6362;50.208;9.182;2023-06-10T05:56:08;99663.47;;;19.17;53.95
12594;BME280;6362;50.208;9.182;2023-06-10T05:58:33;99663.59;;;19.33;53.98
12594;BME280;6362;50.208;9.182;2023-06-10T06:00:59;99660.81;;;19.36;53.63
12594;BME280;6362;50.208;9.182;2023-06-10T06:03:25;99658.38;;;19.50;53.82
12594;BME280;6362;50.208;9.182;2023-06-10T06:05:50;99669.06;;;19.66;53.69
12594;BME280;6362;50.208;9.182;2023-06-10T06:08:16;99668.69;;;19.73;53.25
12594;BME280;6362;50.208;9.182;2023-06-10T06:10:45;99657.59;;;19.84;53.26
12594;BME280;6362;50.208;9.182;2023-06-10T06:13:10;99666.59;;;19.97;53.29
12594;BME280;6362;50.208;9.182;2023-06-10T06:15:36;99667.63;;;20.12;52.91
12594;BME280;6362;50.208;9.182;2023-06-10T06:18:01;99668.84;;;20.22;52.73
12594;BME280;6362;50.208;9.182;2023-06-10T06:20:27;99661.91;;;20.37;52.29
12594;BME280;6362;50.208;9.182;2023-06-10T06:22:52;99666.44;;;20.52;52.25
12594;BME280;6362;50.208;9.182;2023-06-10T06:25:17;99669.53;;;20.61;51.78
12594;BME280;6362;50.208;9.182;2023-06-10T06:27:43;99665.72;;;20.66;52.10
12594;BME280;6362;50.208;9.182;2023-06-10T06:30:09;99664.97;;;20.80;51.73
12594;BME280;6362;50.208;9.182;2023-06-10T06:32:34;99670.41;;;20.93;51.73
12594;BME280;6362;50.208;9.182;2023-06-10T06:34:59;99664.84;;;20.99;51.23
12594;BME280;6362;50.208;9.182;2023-06-10T06:37:25;99668.41;;;21.14;51.13
12594;BME280;6362;50.208;9.182;2023-06-10T06:39:51;99657.47;;;21.20;50.87
12594;BME280;6362;50.208;9.182;2023-06-10T06:42:17;99667.84;;;21.40;50.65
12594;BME280;6362;50.208;9.182;2023-06-10T06:44:43;99660.25;;;21.50;49.95
12594;BME280;6362;50.208;9.182;2023-06-10T06:47:09;99666.88;;;21.57;50.15
12594;BME280;6362;50.208;9.182;2023-06-10T06:49:34;99670.22;;;21.60;49.77
12594;BME280;6362;50.208;9.182;2023-06-10T06:52:00;99666.53;;;21.63;50.73
12594;BME280;6362;50.208;9.182;2023-06-10T06:54:26;99671.97;;;21.76;50.35
12594;BME280;6362;50.208;9.182;2023-06-10T06:56:51;99666.22;;;21.99;49.75
12594;BME280;6362;50.208;9.182;2023-06-10T06:59:17;99664.09;;;22.20;49.21
12594;BME280;6362;50.208;9.182;2023-06-10T07:01:44;99664.41;;;22.30;49.44
12594;BME280;6362;50.208;9.182;2023-06-10T07:04:10;99667.84;;;22.46;48.92
12594;BME280;6362;50.208;9.182;2023-06-10T07:06:35;99668.03;;;22.57;48.18
12594;BME280;6362;50.208;9.182;2023-06-10T07:09:01;99673.41;;;22.70;47.71
12594;BME280;6362;50.208;9.182;2023-06-10T07:11:27;99668.50;;;22.78;47.38
12594;BME280;6362;50.208;9.182;2023-06-10T07:13:52;99671.16;;;22.92;47.35
12594;BME280;6362;50.208;9.182;2023-06-10T07:16:18;99672.00;;;22.93;47.67
12594;BME280;6362;50.208;9.182;2023-06-10T07:18:46;99681.59;;;22.96;46.55
12594;BME280;6362;50.208;9.182;2023-06-10T07:21:11;99687.81;;;23.09;47.28
12594;BME280;6362;50.208;9.182;2023-06-10T07:23:36;99685.56;;;23.17;46.72
12594;BME280;6362;50.208;9.182;2023-06-10T07:26:02;99685.00;;;23.12;46.92
12594;BME280;6362;50.208;9.182;2023-06-10T07:28:27;99688.47;;;23.27;47.00
12594;BME280;6362;50.208;9.182;2023-06-10T07:30:53;99687.25;;;23.32;46.58
12594;BME280;6362;50.208;9.182;2023-06-10T07:33:18;99684.53;;;23.47;46.68
12594;BME280;6362;50.208;9.182;2023-06-10T07:35:44;99685.66;;;23.57;45.96
12594;BME280;6362;50.208;9.182;2023-06-10T07:38:09;99684.38;;;23.77;45.89
12594;BME280;6362;50.208;9.182;2023-06-10T07:40:35;99684.81;;;23.83;45.91
12594;BME280;6362;50.208;9.182;2023-06-10T07:43:00;99685.03;;;23.93;45.49
12594;BME280;6362;50.208;9.182;2023-06-10T07:45:26;99680.22;;;24.12;45.53
12594;BME280;6362;50.208;9.182;2023-06-10T07:47:51;99683.66;;;24.27;44.61
12594;BME280;6362;50.208;9.182;2023-06-10T07:50:16;99682.53;;;24.44;44.29
12594;BME280;6362;50.208;9.182;2023-06-10T07:52:42;99687.28;;;24.52;44.36
12594;BME280;6362;50.208;9.182;2023-06-10T07:55:07;99687.28;;;24.64;43.51
12594;BME280;6362;50.208;9.182;2023-06-10T07:57:33;99682.41;;;24.84;43.17
12594;BME280;6362;50.208;9.182;2023-06-10T08:00:02;99686.19;;;24.92;42.32
12594;BME280;6362;50.208;9.182;2023-06-10T08:02:29;99691.84;;;25.00;42.32
12594;BME280;6362;50.208;9.182;2023-06-10T08:04:55;99681.97;;;25.15;42.33
12594;BME280;6362;50.208;9.182;2023-06-10T08:07:21;99681.31;;;25.12;41.92
12594;BME280;6362;50.208;9.182;2023-06-10T08:09:47;99684.06;;;25.23;42.02
12594;BME280;6362;50.208;9.182;2023-06-10T08:12:13;99680.44;;;25.24;41.56
12594;BME280;6362;50.208;9.182;2023-06-10T08:14:38;99681.78;;;25.30;41.82
12594;BME280;6362;50.208;9.182;2023-06-10T08:17:04;99675.06;;;25.37;42.23
12594;BME280;6362;50.208;9.182;2023-06-10T08:19:31;99675.59;;;25.66;41.98
12594;BME280;6362;50.208;9.182;2023-06-10T08:21:56;99673.16;;;25.63;41.12
12594;BME280;6362;50.208;9.182;2023-06-10T08:24:22;99666.94;;;25.75;40.54
12594;BME280;6362;50.208;9.182;2023-06-10T08:26:48;99671.78;;;25.81;40.68
12594;BME280;6362;50.208;9.182;2023-06-10T08:29:13;99663.97;;;25.91;40.70
12594;BME280;6362;50.208;9.182;2023-06-10T08:31:43;99668.66;;;26.11;40.81
12594;BME280;6362;50.208;9.182;2023-06-10T08:34:09;99660.53;;;26.13;40.74
12594;BME280;6362;50.208;9.182;2023-06-10T08:36:34;99669.78;;;26.31;41.60
12594;BME280;6362;50.208;9.182;2023-06-10T08:39:01;99663.25;;;26.35;40.48
12594;BME280;6362;50.208;9.182;2023-06-10T08:41:28;99663.06;;;26.49;40.56
12594;BME280;6362;50.208;9.182;2023-06-10T08:44:01;99659.06;;;26.55;41.44
12594;BME280;6362;50.208;9.182;2023-06-10T08:46:31;99652.06;;;26.76;40.31
12594;BME280;6362;50.208;9.182;2023-06-10T08:49:02;99660.28;;;26.96;40.42
12594;BME280;6362;50.208;9.182;2023-06-10T08:51:29;99650.69;;;27.04;40.01
12594;BME280;6362;50.208;9.182;2023-06-10T08:54:03;99648.75;;;27.29;39.37
12594;BME280;6362;50.208;9.182;2023-06-10T08:56:29;99653.16;;;27.51;38.30
12594;BME280;6362;50.208;9.182;2023-06-10T08:58:56;99660.97;;;27.31;37.59
12594;BME280;6362;50.208;9.182;2023-06-10T09:01:24;99652.09;;;27.42;37.96
12594;BME280;6362;50.208;9.182;2023-06-10T09:03:51;99652.09;;;27.42;38.10
12594;BME280;6362;50.208;9.182;2023-06-10T09:06:17;99643.50;;;27.82;37.17
12594;BME280;6362;50.208;9.182;2023-06-10T09:08:43;99644.75;;;27.99;37.94
12594;BME280;6362;50.208;9.182;2023-06-10T09:11:09;99645.84;;;28.17;36.55
12594;BME280;6362;50.208;9.182;2023-06-10T09:13:34;99644.59;;;28.32;36.21
12594;BME280;6362;50.208;9.182;2023-06-10T09:16:00;99648.31;;;28.30;36.03
12594;BME280;6362;50.208;9.182;2023-06-10T09:18:28;99644.47;;;28.23;35.18
12594;BME280;6362;50.208;9.182;2023-06-10T09:20:54;99638.72;;;28.48;35.88
12594;BME280;6362;50.208;9.182;2023-06-10T09:23:19;99639.81;;;28.66;36.02
12594;BME280;6362;50.208;9.182;2023-06-10T09:25:45;99636.69;;;28.61;35.91
12594;BME280;6362;50.208;9.182;2023-06-10T09:28:15;99633.53;;;28.87;35.32
12594;BME280;6362;50.208;9.182;2023-06-10T09:30:40;99630.00;;;29.17;34.91
12594;BME280;6362;50.208;9.182;2023-06-10T09:33:11;99629.97;;;29.07;34.61
12594;BME280;6362;50.208;9.182;2023-06-10T09:35:48;99627.34;;;29.36;33.67
12594;BME280;6362;50.208;9.182;2023-06-10T09:38:19;99624.69;;;29.46;33.81
12594;BME280;6362;50.208;9.182;2023-06-10T09:40:50;99617.97;;;29.61;34.15
12594;BME280;6362;50.208;9.182;2023-06-10T09:43:16;99623.75;;;29.66;33.97
12594;BME280;6362;50.208;9.182;2023-06-10T09:45:41;99623.34;;;29.71;33.71
12594;BME280;6362;50.208;9.182;2023-06-10T09:48:08;99615.00;;;29.84;33.14
12594;BME280;6362;50.208;9.182;2023-06-10T09:50:34;99625.56;;;30.05;33.16
12594;BME280;6362;50.208;9.182;2023-06-10T09:53:00;99622.72;;;30.06;31.72
12594;BME280;6362;50.208;9.182;2023-06-10T09:55:28;99622.44;;;30.19;31.47
12594;BME280;6362;50.208;9.182;2023-06-10T09:57:54;99626.84;;;29.91;30.82
12594;BME280;6362;50.208;9.182;2023-06-10T10:00:22;99613.59;;;29.80;31.18
12594;BME280;6362;50.208;9.182;2023-06-10T10:02:50;99612.03;;;29.77;31.87
12594;BME280;6362;50.208;9.182;2023-06-10T10:05:17;99610.31;;;30.05;32.38
12594;BME280;6362;50.208;9.182;2023-06-10T10:07:43;99600.13;;;30.18;32.64
12594;BME280;6362;50.208;9.182;2023-06-10T10:10:09;99603.25;;;30.23;30.66
12594;BME280;6362;50.208;9.182;2023-06-10T10:12:37;99604.66;;;30.08;33.06
12594;BME280;6362;50.208;9.182;2023-06-10T10:15:03;99610.28;;;30.24;32.08
12594;BME280;6362;50.208;9.182;2023-06-10T10:17:32;99606.56;;;30.45;31.45
12594;BME280;6362;50.208;9.182;2023-06-10T10:20:02;99599.84;;;30.59;30.16
12594;BME280;6362;50.208;9.182;2023-06-10T10:22:39;99598.72;;;30.24;30.75
12594;BME280;6362;50.208;9.182;2023-06-10T10:25:11;99600.38;;;30.35;31.32
12594;BME280;6362;50.208;9.182;2023-06-10T10:27:44;99594.25;;;30.42;31.06
12594;BME280;6362;50.208;9.182;2023-06-10T10:30:14;99602.25;;;30.15;30.81
12594;BME280;6362;50.208;9.182;2023-06-10T10:32:57;99597.59;;;30.07;30.69
12594;BME280;6362;50.208;9.182;2023-06-10T10:35:25;99595.59;;;30.09;30.38
12594;BME280;6362;50.208;9.182;2023-06-10T10:37:54;99595.31;;;30.32;31.38
12594;BME280;6362;50.208;9.182;2023-06-10T10:40:21;99584.09;;;29.89;31.38
12594;BME280;6362;50.208;9.182;2023-06-10T10:42:48;99594.50;;;30.21;31.00
12594;BME280;6362;50.208;9.182;2023-06-10T10:45:14;99595.34;;;30.59;32.49
12594;BME280;6362;50.208;9.182;2023-06-10T10:47:41;99599.00;;;30.95;31.25
12594;BME280;6362;50.208;9.182;2023-06-10T10:50:18;99591.34;;;31.28;29.71
12594;BME280;6362;50.208;9.182;2023-06-10T10:55:25;99579.00;;;31.97;26.80
12594;BME280;6362;50.208;9.182;2023-06-10T10:58:05;99587.31;;;32.29;26.33
12594;BME280;6362;50.208;9.182;2023-06-10T11:00:36;99597.06;;;32.30;27.27
12594;BME280;6362;50.208;9.182;2023-06-10T11:03:06;99580.97;;;32.13;27.08
12594;BME280;6362;50.208;9.182;2023-06-10T11:05:44;99575.53;;;32.30;27.55
12594;BME280;6362;50.208;9.182;2023-06-10T11:08:13;99582.63;;;32.05;25.78
12594;BME280;6362;50.208;9.182;2023-06-10T11:10:40;99580.94;;;32.04;27.23
12594;BME280;6362;50.208;9.182;2023-06-10T11:13:07;99581.31;;;32.36;27.83
12594;BME280;6362;50.208;9.182;2023-06-10T11:15:39;99572.00;;;32.56;25.92
12594;BME280;6362;50.208;9.182;2023-06-10T11:18:34;99588.47;;;32.27;27.53
12594;BME280;6362;50.208;9.182;2023-06-10T11:21:04;99574.59;;;32.40;26.91
12594;BME280;6362;50.208;9.182;2023-06-10T11:26:20;99576.38;;;32.31;26.69
12594;BME280;6362;50.208;9.182;2023-06-10T11:31:21;99570.03;;;32.66;26.40
12594;BME280;6362;50.208;9.182;2023-06-10T11:33:48;99556.69;;;33.07;26.12
12594;BME280;6362;50.208;9.182;2023-06-10T11:36:17;99565.69;;;33.32;26.45
12594;BME280;6362;50.208;9.182;2023-06-10T11:38:43;99561.81;;;33.26;24.41
12594;BME280;6362;50.208;9.182;2023-06-10T11:41:08;99547.84;;;33.63;23.11
12594;BME280;6362;50.208;9.182;2023-06-10T11:43:34;99547.69;;;33.49;22.44
12594;BME280;6362;50.208;9.182;2023-06-10T11:46:00;99561.09;;;33.16;22.56
12594;BME280;6362;50.208;9.182;2023-06-10T11:48:26;99553.50;;;33.20;25.23
12594;BME280;6362;50.208;9.182;2023-06-10T11:50:55;99557.41;;;33.25;23.96
12594;BME280;6362;50.208;9.182;2023-06-10T11:53:21;99551.41;;;33.56;23.65
12594;BME280;6362;50.208;9.182;2023-06-10T11:55:48;99554.84;;;32.99;24.22
12594;BME280;6362;50.208;9.182;2023-06-10T11:58:18;99550.19;;;33.34;26.43
12594;BME280;6362;50.208;9.182;2023-06-10T12:00:54;99547.69;;;33.49;24.89
12594;BME280;6362;50.208;9.182;2023-06-10T12:03:21;99547.66;;;33.98;25.33
12594;BME280;6362;50.208;9.182;2023-06-10T12:05:57;99547.28;;;33.19;24.74
12594;BME280;6362;50.208;9.182;2023-06-10T12:08:23;99542.44;;;33.63;24.46
12594;BME280;6362;50.208;9.182;2023-06-10T12:10:49;99547.66;;;33.89;23.90
12594;BME280;6362;50.208;9.182;2023-06-10T12:13:15;99538.72;;;33.97;23.95
12594;BME280;6362;50.208;9.182;2023-06-10T12:15:40;99550.91;;;33.60;23.48
12594;BME280;6362;50.208;9.182;2023-06-10T12:18:06;99541.94;;;34.01;24.89
12594;BME280;6362;50.208;9.182;2023-06-10T12:20:33;99546.81;;;33.40;24.20
12594;BME280;6362;50.208;9.182;2023-06-10T12:23:09;99560.75;;;32.69;23.83
12594;BME280;6362;50.208;9.182;2023-06-10T12:25:34;99552.69;;;32.09;26.56
12594;BME280;6362;50.208;9.182;2023-06-10T12:28:02;99559.13;;;31.90;27.40
12594;BME280;6362;50.208;9.182;2023-06-10T12:30:28;99548.34;;;31.46;26.11
12594;BME280;6362;50.208;9.182;2023-06-10T12:32:54;99548.91;;;31.75;25.99
12594;BME280;6362;50.208;9.182;2023-06-10T12:35:25;99549.84;;;32.36;25.36
12594;BME280;6362;50.208;9.182;2023-06-10T12:38:04;99548.50;;;32.74;25.12
12594;BME280;6362;50.208;9.182;2023-06-10T12:40:33;99533.84;;;33.27;24.04
12594;BME280;6362;50.208;9.182;2023-06-10T12:43:00;99537.84;;;33.31;23.58
12594;BME280;6362;50.208;9.182;2023-06-10T12:45:27;99521.56;;;33.66;22.83
12594;BME280;6362;50.208;9.182;2023-06-10T12:48:24;99532.28;;;34.23;23.67
12594;BME280;6362;50.208;9.182;2023-06-10T12:53:18;99518.75;;;34.70;22.46
12594;BME280;6362;50.208;9.182;2023-06-10T12:55:44;99522.38;;;34.85;22.89
12594;BME280;6362;50.208;9.182;2023-06-10T12:58:11;99513.56;;;34.91;24.11
12594;BME280;6362;50.208;9.182;2023-06-10T13:00:37;99516.44;;;34.90;21.23
12594;BME280;6362;50.208;9.182;2023-06-10T13:03:03;99514.97;;;34.87;22.38
12594;BME280;6362;50.208;9.182;2023-06-10T13:05:30;99522.88;;;34.58;21.66
12594;BME280;6362;50.208;9.182;2023-06-10T13:07:57;99521.00;;;34.58;21.31
12594;BME280;6362;50.208;9.182;2023-06-10T13:10:22;99513.25;;;33.92;22.92
12594;BME280;6362;50.208;9.182;2023-06-10T13:12:48;99518.25;;;34.27;23.04
12594;BME280;6362;50.208;9.182;2023-06-10T13:15:14;99508.41;;;34.51;21.68
12594;BME280;6362;50.208;9.182;2023-06-10T13:17:41;99515.91;;;34.72;21.62
12594;BME280;6362;50.208;9.182;2023-06-10T13:20:07;99507.31;;;34.91;22.22
12594;BME280;6362;50.208;9.182;2023-06-10T13:22:34;99516.13;;;34.93;22.47
12594;BME280;6362;50.208;9.182;2023-06-10T13:25:05;99505.03;;;34.49;22.35